Time;durP1;ratioP1;P1;durP2;ratioP2;P2;SDS_P1;SDS_P2;PMS_P1;PMS_P2;Temp;Humidity;BMP_temperature;BMP_pressure;BME280_temperature;BME280_humidity;BME280_pressure;Samples;Min_cycle;Max_cycle;Signal;HPM_P1;HPM_P2
2024/03/09 00:01:37;;;;;;;40.50;29.40;;;;;;;;;;10417308;27;20105;-64
2024/03/09 00:06:37;;;;;;;39.35;28.95;;;;;;;;;;10419344;27;20079;-64
2024/03/09 00:11:36;;;;;;;34.25;27.90;;;;;;;;;;10419654;27;20534;-64
2024/03/09 00:16:40;;;;;;;41.10;28.40;;;;;;;;;;10421610;27;20059;-65
2024/03/09 00:21:40;;;;;;;34.80;27.60;;;;;;;;;;10415845;27;20082;-63
2024/03/09 00:26:38;;;;;;;35.15;27.85;;;;;;;;;;10420526;27;20078;-64
2024/03/09 00:31:36;;;;;;;37.03;28.45;;;;;;;;;;10418969;27;20082;-63
2024/03/09 00:36:34;;;;;;;36.28;28.83;;;;;;;;;;10421052;27;20063;-65
2024/03/09 00:41:34;;;;;;;43.58;29.40;;;;;;;;;;10420778;27;20075;-63
2024/03/09 00:46:34;;;;;;;33.47;26.80;;;;;;;;;;10419628;27;20087;-66
2024/03/09 00:51:33;;;;;;;35.42;28.98;;;;;;;;;;10420311;27;20499;-64
2024/03/09 00:56:31;;;;;;;33.13;26.13;;;;;;;;;;10422170;27;20074;-65
2024/03/09 01:01:32;;;;;;;42.85;26.60;;;;;;;;;;10418539;27;20082;-64
2024/03/09 01:06:30;;;;;;;38.97;27.27;;;;;;;;;;10416106;27;20121;-64
2024/03/09 01:11:28;;;;;;;41.65;29.40;;;;;;;;;;10417099;27;20464;-63
2024/03/09 01:16:27;;;;;;;42.40;32.65;;;;;;;;;;10417923;27;20079;-64
2024/03/09 01:21:28;;;;;;;40.50;28.42;;;;;;;;;;10419505;27;20491;-64
2024/03/09 01:26:26;;;;;;;35.67;27.45;;;;;;;;;;10414719;27;20098;-63
2024/03/09 01:31:28;;;;;;;35.33;28.05;;;;;;;;;;10413363;27;20063;-64
2024/03/09 01:36:28;;;;;;;35.75;27.85;;;;;;;;;;10418705;27;20070;-63
2024/03/09 01:41:26;;;;;;;37.20;28.35;;;;;;;;;;10410546;27;20071;-63
2024/03/09 01:46:25;;;;;;;40.40;28.67;;;;;;;;;;10423886;27;20341;-63
2024/03/09 01:51:24;;;;;;;35.25;26.73;;;;;;;;;;10415225;27;20062;-63
2024/03/09 01:56:25;;;;;;;37.35;29.15;;;;;;;;;;10416782;27;20063;-64
2024/03/09 02:01:24;;;;;;;36.72;27.77;;;;;;;;;;10415596;27;20077;-63
2024/03/09 02:06:23;;;;;;;34.47;27.42;;;;;;;;;;10413744;27;20039;-63
2024/03/09 02:11:22;;;;;;;37.35;28.60;;;;;;;;;;10414433;27;20542;-63
2024/03/09 02:16:22;;;;;;;36.05;28.00;;;;;;;;;;10415980;27;20074;-62
2024/03/09 02:21:21;;;;;;;31.13;26.35;;;;;;;;;;10413441;27;20179;-64
2024/03/09 02:26:22;;;;;;;38.20;28.00;;;;;;;;;;10415047;27;20078;-63
2024/03/09 02:31:21;;;;;;;32.80;26.20;;;;;;;;;;10413823;27;20063;-63
2024/03/09 02:36:23;;;;;;;34.03;26.40;;;;;;;;;;10410474;27;20411;-63
2024/03/09 02:41:24;;;;;;;33.83;26.10;;;;;;;;;;10417151;27;20067;-64
2024/03/09 02:46:25;;;;;;;30.25;25.80;;;;;;;;;;10417549;27;20079;-62
2024/03/09 02:51:25;;;;;;;35.70;26.63;;;;;;;;;;10411838;27;20464;-63
2024/03/09 02:56:25;;;;;;;33.65;27.27;;;;;;;;;;10413640;27;20081;-63
2024/03/09 03:01:23;;;;;;;34.72;26.00;;;;;;;;;;10413665;27;20101;-63
2024/03/09 03:06:22;;;;;;;32.67;25.75;;;;;;;;;;10412338;27;20530;-63
2024/03/09 03:11:21;;;;;;;37.22;28.58;;;;;;;;;;10416679;27;20071;-62
2024/03/09 03:16:26;;;;;;;44.80;33.25;;;;;;;;;;10413326;27;20511;-63
2024/03/09 03:21:25;;;;;;;38.53;28.88;;;;;;;;;;10413037;27;20066;-63
2024/03/09 03:26:24;;;;;;;32.55;26.35;;;;;;;;;;10421632;27;20074;-64
2024/03/09 03:31:24;;;;;;;41.30;27.67;;;;;;;;;;10424371;27;20059;-63
2024/03/09 03:36:24;;;;;;;35.33;27.67;;;;;;;;;;10424251;27;20059;-63
2024/03/09 03:41:23;;;;;;;42.25;27.13;;;;;;;;;;10405476;27;20153;-62
2024/03/09 03:46:23;;;;;;;40.13;29.70;;;;;;;;;;10423318;27;20055;-63
2024/03/09 03:51:21;;;;;;;40.90;29.38;;;;;;;;;;10423034;27;20083;-64
2024/03/09 03:56:24;;;;;;;68.60;44.67;;;;;;;;;;10423159;27;20063;-63
2024/03/09 04:01:24;;;;;;;35.92;28.90;;;;;;;;;;10418447;27;20485;-63
2024/03/09 04:06:22;;;;;;;34.88;27.80;;;;;;;;;;10420692;27;20074;-63
2024/03/09 04:11:21;;;;;;;34.97;26.75;;;;;;;;;;10424061;27;20078;-63
2024/03/09 04:16:19;;;;;;;37.03;26.48;;;;;;;;;;10418262;27;20074;-63
2024/03/09 04:21:19;;;;;;;34.42;27.20;;;;;;;;;;10422564;27;20105;-63
2024/03/09 04:26:18;;;;;;;35.65;27.00;;;;;;;;;;10417576;27;20051;-63
2024/03/09 04:31:16;;;;;;;32.83;27.73;;;;;;;;;;10413092;27;20075;-63
2024/03/09 04:36:15;;;;;;;32.53;26.75;;;;;;;;;;10421489;27;20397;-62
2024/03/09 04:41:14;;;;;;;36.25;30.20;;;;;;;;;;10421902;27;20500;-63
2024/03/09 04:46:14;;;;;;;41.33;28.50;;;;;;;;;;10420341;27;20343;-63
2024/03/09 04:51:13;;;;;;;35.33;27.13;;;;;;;;;;10423882;27;20117;-62
2024/03/09 04:56:11;;;;;;;39.42;27.95;;;;;;;;;;10422871;27;20078;-62
2024/03/09 05:01:11;;;;;;;35.10;26.63;;;;;;;;;;10417342;27;20067;-63
2024/03/09 05:06:09;;;;;;;37.80;27.75;;;;;;;;;;10420949;27;20078;-63
2024/03/09 05:11:07;;;;;;;35.88;27.73;;;;;;;;;;10416535;27;20078;-63
2024/03/09 05:16:06;;;;;;;38.17;28.23;;;;;;;;;;10418842;27;20078;-63
2024/03/09 05:21:06;;;;;;;36.55;27.85;;;;;;;;;;10401344;27;20496;-63
2024/03/09 05:26:05;;;;;;;35.67;28.25;;;;;;;;;;10417718;27;20148;-63
2024/03/09 05:31:04;;;;;;;49.25;37.30;;;;;;;;;;10416424;27;20047;-63
2024/03/09 05:36:03;;;;;;;37.33;30.92;;;;;;;;;;10419593;27;20112;-63
2024/03/09 05:41:07;;;;;;;33.67;26.95;;;;;;;;;;10420448;27;20149;-63
2024/03/09 05:46:07;;;;;;;34.17;27.75;;;;;;;;;;10420113;27;20077;-64
2024/03/09 05:51:09;;;;;;;41.58;29.95;;;;;;;;;;10417076;27;20039;-64
2024/03/09 05:56:10;;;;;;;36.83;29.95;;;;;;;;;;10415529;27;20504;-65
2024/03/09 06:01:08;;;;;;;36.17;27.27;;;;;;;;;;10414606;27;20067;-64
2024/03/09 06:06:07;;;;;;;39.53;29.35;;;;;;;;;;10417065;27;20601;-63
2024/03/09 06:11:07;;;;;;;34.75;28.60;;;;;;;;;;10396858;27;20055;-63
2024/03/09 06:16:09;;;;;;;36.53;28.52;;;;;;;;;;10417295;27;20470;-64
2024/03/09 06:21:07;;;;;;;33.33;26.88;;;;;;;;;;10415503;27;20101;-63
2024/03/09 06:26:06;;;;;;;40.90;29.70;;;;;;;;;;10410121;27;20333;-64
2024/03/09 06:31:04;;;;;;;40.20;29.70;;;;;;;;;;10416380;27;20071;-63
2024/03/09 06:36:07;;;;;;;35.47;27.67;;;;;;;;;;10413420;27;20082;-64
2024/03/09 06:41:05;;;;;;;38.13;29.20;;;;;;;;;;10412102;27;20086;-65
2024/03/09 06:46:04;;;;;;;38.85;29.58;;;;;;;;;;10412502;27;20082;-65
2024/03/09 06:51:02;;;;;;;42.72;31.73;;;;;;;;;;10413891;27;20472;-64
2024/03/09 06:56:03;;;;;;;38.80;31.60;;;;;;;;;;10411849;27;20062;-63
2024/03/09 07:01:03;;;;;;;36.10;28.92;;;;;;;;;;10397782;27;20040;-64
2024/03/09 07:06:03;;;;;;;27.73;23.08;;;;;;;;;;10420137;27;20074;-63
2024/03/09 07:11:04;;;;;;;23.83;20.70;;;;;;;;;;10399550;27;20048;-63
2024/03/09 07:16:02;;;;;;;19.90;17.30;;;;;;;;;;10413466;27;20079;-64
2024/03/09 07:21:00;;;;;;;32.92;23.90;;;;;;;;;;10418558;27;20071;-63
2024/03/09 07:25:59;;;;;;;21.60;17.55;;;;;;;;;;10420941;27;20071;-63
2024/03/09 07:30:59;;;;;;;24.50;17.63;;;;;;;;;;10417091;27;20071;-63
2024/03/09 07:35:58;;;;;;;42.30;27.75;;;;;;;;;;10414350;27;20082;-64
2024/03/09 07:40:56;;;;;;;36.45;29.38;;;;;;;;;;10411729;27;20074;-64
2024/03/09 07:45:55;;;;;;;25.13;19.13;;;;;;;;;;10414813;27;20079;-63
2024/03/09 07:50:56;;;;;;;24.13;21.52;;;;;;;;;;10419654;27;20071;-64
2024/03/09 07:55:58;;;;;;;16.35;14.65;;;;;;;;;;10412925;27;20067;-63
2024/03/09 08:00:57;;;;;;;16.65;14.45;;;;;;;;;;10425358;27;20042;-63
2024/03/09 08:05:56;;;;;;;15.05;13.45;;;;;;;;;;10416610;27;20071;-63
2024/03/09 08:10:55;;;;;;;14.85;12.70;;;;;;;;;;10428854;27;20094;-63
2024/03/09 08:15:54;;;;;;;24.33;16.25;;;;;;;;;;10418858;27;20078;-62
2024/03/09 08:20:53;;;;;;;17.95;14.00;;;;;;;;;;10418815;27;20490;-63
2024/03/09 08:25:53;;;;;;;20.98;15.75;;;;;;;;;;10421062;27;20083;-63
2024/03/09 08:30:52;;;;;;;17.15;14.18;;;;;;;;;;10415714;27;20068;-63
2024/03/09 08:35:58;;;;;;;16.08;14.18;;;;;;;;;;10421621;27;20071;-63
2024/03/09 08:40:58;;;;;;;14.57;11.88;;;;;;;;;;10417934;27;20077;-63
2024/03/09 08:45:56;;;;;;;12.65;10.73;;;;;;;;;;10420301;27;20523;-63
2024/03/09 08:50:55;;;;;;;16.70;12.40;;;;;;;;;;10412252;27;20820;-62
2024/03/09 08:55:53;;;;;;;12.88;11.48;;;;;;;;;;10414369;27;20054;-63
2024/03/09 09:00:53;;;;;;;11.80;10.45;;;;;;;;;;10416493;27;20148;-63
2024/03/09 09:05:51;;;;;;;14.05;12.55;;;;;;;;;;10417497;27;20087;-62
2024/03/09 09:10:49;;;;;;;12.07;10.68;;;;;;;;;;10416607;27;20083;-63
2024/03/09 09:15:48;;;;;;;10.85;9.73;;;;;;;;;;10417606;27;20075;-63
2024/03/09 09:20:48;;;;;;;22.23;11.00;;;;;;;;;;10417584;27;20059;-64
2024/03/09 09:25:46;;;;;;;7.72;6.93;;;;;;;;;;10416302;27;20074;-64
2024/03/09 09:30:45;;;;;;;10.52;8.95;;;;;;;;;;10420417;27;20062;-62
2024/03/09 09:35:43;;;;;;;13.90;12.02;;;;;;;;;;10418460;27;20040;-63
2024/03/09 09:40:43;;;;;;;10.32;8.93;;;;;;;;;;10424763;27;20079;-62
2024/03/09 09:45:44;;;;;;;11.75;10.25;;;;;;;;;;10422169;27;20074;-63
2024/03/09 09:50:44;;;;;;;11.82;10.05;;;;;;;;;;10421346;27;20070;-63
2024/03/09 09:55:46;;;;;;;12.43;10.88;;;;;;;;;;10418150;27;20456;-63
2024/03/09 10:00:45;;;;;;;10.80;9.30;;;;;;;;;;10413945;27;20069;-63
2024/03/09 10:05:43;;;;;;;11.63;9.35;;;;;;;;;;10419733;27;20071;-63
2024/03/09 10:10:43;;;;;;;11.00;9.77;;;;;;;;;;10419314;27;20527;-63
2024/03/09 10:15:44;;;;;;;10.65;9.50;;;;;;;;;;10416049;27;20078;-64
2024/03/09 10:20:43;;;;;;;10.75;9.65;;;;;;;;;;10413293;27;20063;-63
2024/03/09 10:25:41;;;;;;;10.65;9.40;;;;;;;;;;10412389;27;20334;-63
2024/03/09 10:30:44;;;;;;;26.40;20.02;;;;;;;;;;10413662;27;20070;-63
2024/03/09 10:35:44;;;;;;;13.10;10.75;;;;;;;;;;10418966;27;20078;-63
2024/03/09 10:40:42;;;;;;;9.32;7.72;;;;;;;;;;10411548;27;20070;-62
2024/03/09 10:45:45;;;;;;;10.75;9.63;;;;;;;;;;10416168;27;20082;-63
2024/03/09 10:50:48;;;;;;;18.25;13.88;;;;;;;;;;10417055;27;20071;-63
2024/03/09 10:55:52;;;;;;;11.88;8.98;;;;;;;;;;10415953;27;20071;-64
2024/03/09 11:00:52;;;;;;;11.75;10.55;;;;;;;;;;10415849;27;20073;-64
2024/03/09 11:05:53;;;;;;;10.25;8.75;;;;;;;;;;10413165;27;20079;-63
2024/03/09 11:10:52;;;;;;;10.48;9.40;;;;;;;;;;10412906;27;20052;-64
2024/03/09 11:15:55;;;;;;;11.40;8.95;;;;;;;;;;10415120;27;20078;-64
2024/03/09 11:20:59;;;;;;;9.40;8.48;;;;;;;;;;10419700;27;20074;-64
2024/03/09 11:25:59;;;;;;;10.37;9.07;;;;;;;;;;10413825;27;20086;-63
2024/03/09 11:31:11;;;;;;;10.48;7.68;;;;;;;;;;10413013;27;20467;-64
2024/03/09 11:36:29;;;;;;;9.48;8.23;;;;;;;;;;10414074;27;20076;-64
2024/03/09 11:41:27;;;;;;;10.13;8.82;;;;;;;;;;10407680;27;20067;-64
2024/03/09 11:46:29;;;;;;;10.55;9.27;;;;;;;;;;10415803;27;20118;-64
2024/03/09 11:51:27;;;;;;;11.75;9.70;;;;;;;;;;10423837;27;20075;-64
2024/03/09 11:56:26;;;;;;;9.73;8.73;;;;;;;;;;10418692;27;20083;-64
2024/03/09 12:01:25;;;;;;;17.67;11.85;;;;;;;;;;10428587;27;20531;-64
2024/03/09 12:06:25;;;;;;;17.25;11.68;;;;;;;;;;10426836;27;20074;-64
2024/03/09 12:11:24;;;;;;;10.30;8.70;;;;;;;;;;10425398;27;20075;-64
2024/03/09 12:16:24;;;;;;;9.70;8.55;;;;;;;;;;10418595;27;20519;-64
2024/03/09 12:21:26;;;;;;;11.63;9.88;;;;;;;;;;10420360;27;20077;-63
2024/03/09 12:26:25;;;;;;;8.95;8.05;;;;;;;;;;10421368;27;20067;-64
2024/03/09 12:31:25;;;;;;;11.18;9.52;;;;;;;;;;10423959;27;20547;-64
2024/03/09 12:36:25;;;;;;;14.18;11.13;;;;;;;;;;10420947;27;20070;-63
2024/03/09 12:41:24;;;;;;;12.00;9.77;;;;;;;;;;10419789;27;20078;-64
2024/03/09 12:46:25;;;;;;;10.75;9.52;;;;;;;;;;10420236;27;20067;-62
2024/03/09 12:51:25;;;;;;;9.50;8.50;;;;;;;;;;10420834;27;20086;-62
2024/03/09 12:56:29;;;;;;;12.63;11.13;;;;;;;;;;10417740;27;20062;-62
2024/03/09 13:01:31;;;;;;;10.48;9.32;;;;;;;;;;10417865;27;20070;-62
2024/03/09 13:06:31;;;;;;;10.65;9.32;;;;;;;;;;10418724;27;20071;-62
2024/03/09 13:11:29;;;;;;;11.38;10.18;;;;;;;;;;10400111;27;20058;-63
2024/03/09 13:16:31;;;;;;;12.48;10.13;;;;;;;;;;10417774;27;20074;-62
2024/03/09 13:21:31;;;;;;;12.68;10.15;;;;;;;;;;10423013;27;20063;-62
2024/03/09 13:26:29;;;;;;;14.20;10.30;;;;;;;;;;10411252;27;20066;-63
2024/03/09 13:31:31;;;;;;;15.70;11.88;;;;;;;;;;10421248;27;20075;-63
2024/03/09 13:36:30;;;;;;;16.20;12.63;;;;;;;;;;10416585;27;20082;-63
2024/03/09 13:41:29;;;;;;;11.23;9.48;;;;;;;;;;10415809;27;20483;-63
2024/03/09 13:46:29;;;;;;;15.50;10.95;;;;;;;;;;10419670;27;20079;-64
2024/03/09 13:51:27;;;;;;;9.25;8.32;;;;;;;;;;10417277;27;20076;-65
2024/03/09 13:56:28;;;;;;;9.50;8.50;;;;;;;;;;10417088;27;20063;-63
2024/03/09 14:01:28;;;;;;;9.88;8.57;;;;;;;;;;10415992;27;20086;-63
2024/03/09 14:06:26;;;;;;;9.57;8.38;;;;;;;;;;10413299;27;20082;-63
2024/03/09 14:11:28;;;;;;;11.90;10.27;;;;;;;;;;10420549;27;20075;-63
2024/03/09 14:16:28;;;;;;;10.02;8.80;;;;;;;;;;10417265;27;20063;-63
2024/03/09 14:21:28;;;;;;;12.65;9.27;;;;;;;;;;10414884;27;20082;-64
2024/03/09 14:26:29;;;;;;;12.07;9.52;;;;;;;;;;10413269;27;20073;-63
2024/03/09 14:31:30;;;;;;;11.00;9.10;;;;;;;;;;10413571;27;20078;-63
2024/03/09 14:36:31;;;;;;;8.93;7.88;;;;;;;;;;10416777;27;20086;-62
2024/03/09 14:41:31;;;;;;;10.93;8.65;;;;;;;;;;10419176;27;20079;-63
2024/03/09 14:46:30;;;;;;;9.02;8.13;;;;;;;;;;10413063;27;20062;-62
2024/03/09 14:51:30;;;;;;;10.20;8.90;;;;;;;;;;10416699;27;20078;-63
2024/03/09 14:56:29;;;;;;;13.73;9.98;;;;;;;;;;10416072;27;20503;-62
2024/03/09 15:01:30;;;;;;;8.85;7.95;;;;;;;;;;10412479;27;20059;-62
2024/03/09 15:06:35;;;;;;;11.73;8.48;;;;;;;;;;10415920;27;20071;-62
2024/03/09 15:11:34;;;;;;;11.90;10.02;;;;;;;;;;10415135;27;20460;-63
2024/03/09 15:16:34;;;;;;;14.30;10.75;;;;;;;;;;10421253;27;20499;-62
2024/03/09 15:21:32;;;;;;;17.33;14.88;;;;;;;;;;10434725;27;20070;-63
2024/03/09 15:26:40;;;;;;;29.23;20.58;;;;;;;;;;10444963;27;20073;-63
2024/03/09 15:31:42;;;;;;;39.28;26.63;;;;;;;;;;10438838;27;20070;-62
2024/03/09 15:36:40;;;;;;;14.32;12.25;;;;;;;;;;10437273;27;20062;-62
2024/03/09 15:41:38;;;;;;;15.77;11.55;;;;;;;;;;10433185;27;20089;-62
2024/03/09 15:46:36;;;;;;;13.15;11.00;;;;;;;;;;10433665;27;20082;-63
2024/03/09 15:51:39;;;;;;;16.00;12.25;;;;;;;;;;10433475;27;20078;-62
2024/03/09 15:56:38;;;;;;;28.88;17.35;;;;;;;;;;10432402;27;20075;-63
2024/03/09 16:01:36;;;;;;;34.72;20.30;;;;;;;;;;10424656;27;20078;-64
2024/03/09 16:06:36;;;;;;;23.70;15.48;;;;;;;;;;10429366;27;20074;-63
2024/03/09 16:11:34;;;;;;;15.18;12.68;;;;;;;;;;10426015;27;20532;-63
2024/03/09 16:16:35;;;;;;;14.77;11.65;;;;;;;;;;10430481;27;20518;-61
2024/03/09 16:21:37;;;;;;;25.48;18.10;;;;;;;;;;10431210;27;20062;-62
2024/03/09 16:26:38;;;;;;;31.67;23.75;;;;;;;;;;10426214;27;20472;-62
2024/03/09 16:31:36;;;;;;;37.65;28.33;;;;;;;;;;10425456;27;20082;-62
2024/03/09 16:36:35;;;;;;;35.10;23.25;;;;;;;;;;10422508;27;20069;-62
2024/03/09 16:41:33;;;;;;;18.48;13.95;;;;;;;;;;10419976;27;20512;-63
2024/03/09 16:46:33;;;;;;;20.15;13.88;;;;;;;;;;10427778;27;20071;-63
2024/03/09 16:51:31;;;;;;;16.02;12.15;;;;;;;;;;10418402;27;20560;-63
2024/03/09 16:56:30;;;;;;;14.48;11.98;;;;;;;;;;10414253;27;20470;-63
2024/03/09 17:01:29;;;;;;;17.45;14.50;;;;;;;;;;10432307;27;20069;-62
2024/03/09 17:06:36;;;;;;;14.55;12.48;;;;;;;;;;10427377;27;20066;-61
2024/03/09 17:11:35;;;;;;;14.13;11.43;;;;;;;;;;10431352;27;20515;-62
2024/03/09 17:16:33;;;;;;;17.15;12.85;;;;;;;;;;10429846;27;20071;-63
2024/03/09 17:21:38;;;;;;;35.42;21.05;;;;;;;;;;10433154;27;20071;-62
2024/03/09 17:26:37;;;;;;;19.42;13.65;;;;;;;;;;10416973;27;20082;-62
2024/03/09 17:31:37;;;;;;;17.20;12.50;;;;;;;;;;10421865;27;20534;-62
2024/03/09 17:36:37;;;;;;;14.13;11.32;;;;;;;;;;10422673;27;20066;-61
2024/03/09 17:41:36;;;;;;;14.65;10.68;;;;;;;;;;10418416;27;20503;-63
2024/03/09 17:46:34;;;;;;;14.95;10.35;;;;;;;;;;10420032;27;20747;-62
2024/03/09 17:51:32;;;;;;;11.50;8.63;;;;;;;;;;10427423;27;20499;-62
2024/03/09 17:56:32;;;;;;;9.40;7.95;;;;;;;;;;10422190;27;20063;-62
2024/03/09 18:01:31;;;;;;;9.05;7.22;;;;;;;;;;10414586;27;20070;-63
2024/03/09 18:06:30;;;;;;;9.90;8.82;;;;;;;;;;10421755;27;20043;-62
2024/03/09 18:11:29;;;;;;;8.98;8.02;;;;;;;;;;10414751;27;20082;-63
2024/03/09 18:16:29;;;;;;;11.50;9.48;;;;;;;;;;10418546;27;20087;-62
2024/03/09 18:21:27;;;;;;;10.73;9.02;;;;;;;;;;10416247;27;20083;-62
2024/03/09 18:26:27;;;;;;;9.38;8.13;;;;;;;;;;10415005;27;20069;-63
2024/03/09 18:31:25;;;;;;;9.65;8.38;;;;;;;;;;10417370;27;20062;-62
2024/03/09 18:36:25;;;;;;;12.27;9.52;;;;;;;;;;10409269;27;20542;-62
2024/03/09 18:41:26;;;;;;;12.43;10.02;;;;;;;;;;10414489;27;20067;-61
2024/03/09 18:46:25;;;;;;;12.40;9.13;;;;;;;;;;10410445;27;20059;-62
2024/03/09 18:51:25;;;;;;;9.55;8.25;;;;;;;;;;10407750;27;20059;-61
2024/03/09 18:56:23;;;;;;;11.13;8.88;;;;;;;;;;10418458;27;20081;-62
2024/03/09 19:01:21;;;;;;;10.25;8.32;;;;;;;;;;10470758;27;20069;-62
2024/03/09 19:06:20;;;;;;;13.65;10.18;;;;;;;;;;10467552;27;20066;-62
2024/03/09 19:11:19;;;;;;;12.88;9.93;;;;;;;;;;10452710;27;20079;-62
2024/03/09 19:16:18;;;;;;;12.25;9.90;;;;;;;;;;10431314;27;20066;-62
2024/03/09 19:21:16;;;;;;;9.85;8.25;;;;;;;;;;10431650;27;20445;-62
2024/03/09 19:26:15;;;;;;;7.82;7.03;;;;;;;;;;10431399;27;20066;-62
2024/03/09 19:31:15;;;;;;;16.58;8.55;;;;;;;;;;10431327;27;20070;-62
2024/03/09 19:36:13;;;;;;;10.07;8.75;;;;;;;;;;10427269;27;20163;-62
2024/03/09 19:41:12;;;;;;;12.23;8.55;;;;;;;;;;10429814;27;20528;-63
2024/03/09 19:46:10;;;;;;;9.73;7.65;;;;;;;;;;10426237;27;20074;-63
2024/03/09 19:51:09;;;;;;;10.00;8.52;;;;;;;;;;10429568;27;20077;-63
2024/03/09 19:56:09;;;;;;;11.80;8.63;;;;;;;;;;10425110;27;20074;-63
2024/03/09 20:01:10;;;;;;;11.77;8.82;;;;;;;;;;10425251;27;20066;-62
2024/03/09 20:06:08;;;;;;;8.35;7.45;;;;;;;;;;10424382;27;20079;-63
2024/03/09 20:11:08;;;;;;;14.35;10.60;;;;;;;;;;10430001;27;20078;-63
2024/03/09 20:16:08;;;;;;;10.50;9.27;;;;;;;;;;10430626;27;20081;-64
2024/03/09 20:21:06;;;;;;;12.60;10.05;;;;;;;;;;10432250;27;20070;-62
2024/03/09 20:26:05;;;;;;;12.20;8.98;;;;;;;;;;10428260;27;20073;-63
2024/03/09 20:31:07;;;;;;;16.13;9.40;;;;;;;;;;10426978;27;20082;-62
2024/03/09 20:36:06;;;;;;;13.70;8.90;;;;;;;;;;10391393;27;20070;-63
2024/03/09 20:41:04;;;;;;;11.20;8.32;;;;;;;;;;10415739;27;20071;-63
2024/03/09 20:46:05;;;;;;;13.40;9.65;;;;;;;;;;10416327;27;20070;-63
2024/03/09 20:51:03;;;;;;;10.63;9.15;;;;;;;;;;10413262;27;20070;-63
2024/03/09 20:56:01;;;;;;;14.43;9.02;;;;;;;;;;10412077;27;20067;-62
2024/03/09 21:01:00;;;;;;;12.73;9.23;;;;;;;;;;10409316;27;20067;-62
2024/03/09 21:06:04;;;;;;;10.65;9.05;;;;;;;;;;10421766;27;20075;-60
2024/03/09 21:11:05;;;;;;;15.90;12.20;;;;;;;;;;10419996;27;20078;-60
2024/03/09 21:16:04;;;;;;;15.32;12.00;;;;;;;;;;10420589;27;20063;-62
2024/03/09 21:21:04;;;;;;;12.55;10.88;;;;;;;;;;10416129;27;20067;-61
2024/03/09 21:26:04;;;;;;;13.65;10.48;;;;;;;;;;10419705;27;20071;-60
2024/03/09 21:31:03;;;;;;;11.65;10.35;;;;;;;;;;10428791;27;20070;-61
2024/03/09 21:36:01;;;;;;;11.55;10.23;;;;;;;;;;10432699;27;20393;-62
2024/03/09 21:41:00;;;;;;;12.48;10.30;;;;;;;;;;10428835;27;20063;-62
2024/03/09 21:45:59;;;;;;;16.45;10.68;;;;;;;;;;10426801;27;20086;-62
2024/03/09 21:50:57;;;;;;;13.15;10.68;;;;;;;;;;10429851;27;20074;-62
2024/03/09 21:56:07;;;;;;;11.73;10.15;;;;;;;;;;10430138;27;20070;-62
2024/03/09 22:01:08;;;;;;;13.43;10.85;;;;;;;;;;10428712;27;20444;-61
2024/03/09 22:06:08;;;;;;;14.15;10.98;;;;;;;;;;10424488;27;20071;-62
2024/03/09 22:11:12;;;;;;;13.30;10.80;;;;;;;;;;10424067;27;20097;-61
2024/03/09 22:16:12;;;;;;;12.52;10.73;;;;;;;;;;10425089;27;20079;-62
2024/03/09 22:21:13;;;;;;;11.23;9.18;;;;;;;;;;10418790;27;20074;-62
2024/03/09 22:26:13;;;;;;;13.35;9.82;;;;;;;;;;10419737;27;20075;-62
2024/03/09 22:31:11;;;;;;;13.32;10.75;;;;;;;;;;10415737;27;20090;-62
2024/03/09 22:36:10;;;;;;;12.32;10.85;;;;;;;;;;10444297;27;20073;-63
2024/03/09 22:41:08;;;;;;;13.48;10.13;;;;;;;;;;10448626;27;20074;-62
2024/03/09 22:46:08;;;;;;;12.73;10.05;;;;;;;;;;10457195;27;20468;-62
2024/03/09 22:51:06;;;;;;;14.05;11.05;;;;;;;;;;10465319;27;20075;-62
2024/03/09 22:56:05;;;;;;;13.75;11.13;;;;;;;;;;10466441;27;20082;-63
2024/03/09 23:01:15;;;;;;;12.77;10.68;;;;;;;;;;10465291;27;20078;-62
2024/03/09 23:06:16;;;;;;;15.15;10.98;;;;;;;;;;10460665;27;20062;-62
2024/03/09 23:11:17;;;;;;;15.15;11.77;;;;;;;;;;10459834;27;20082;-63
2024/03/09 23:16:17;;;;;;;14.02;11.15;;;;;;;;;;10455271;27;20077;-63
2024/03/09 23:21:17;;;;;;;16.10;10.57;;;;;;;;;;10456150;27;20081;-63
2024/03/09 23:26:15;;;;;;;13.38;11.45;;;;;;;;;;10456857;27;20073;-63
2024/03/09 23:31:14;;;;;;;13.32;11.05;;;;;;;;;;10455334;27;20116;-62
2024/03/09 23:36:12;;;;;;;15.40;11.13;;;;;;;;;;10434632;27;20082;-62
2024/03/09 23:41:12;;;;;;;14.85;12.20;;;;;;;;;;10457240;27;20594;-63
2024/03/09 23:46:11;;;;;;;13.95;11.10;;;;;;;;;;10450612;27;20075;-63
2024/03/09 23:51:10;;;;;;;14.20;10.88;;;;;;;;;;10454164;27;20084;-62
2024/03/09 23:56:10;;;;;;;14.93;11.40;;;;;;;;;;10452455;27;20478;-63
